TAM3880 SBGR-SBRP
Flight info
| Callsign | TAM3880 |
|---|---|
| Flight time | 0h 31m |
| Altitude | 26000 |
| Route | GERTU UZ25 KOMTO |
| Aircraft | A320/M-SDE3FGHIRWY/LB1 |
Departure
| Time | 2026-04-23 17:40 |
|---|---|
| Airport | São Paulo/Guarulhos–Governor André Franco Montoro International Airport (SBGR) |
Arrival
| Time | 2026-04-23 18:12 |
|---|---|
| Airport | Leite Lopes Airport (SBRP) |
| Time | Latitude | Longitude | Altitude | Speed | Heading |
|---|---|---|---|---|---|
| 2026-04-23 16:41 | -23.42811 | -46.48243 | 2469 ft | 0 kts | 266° |
| 2026-04-23 17:32 | -23.42811 | -46.48237 | 2468 ft | 2 kts | 266° |
| 2026-04-23 17:33 | -23.42810 | -46.48220 | 2468 ft | 2 kts | 266° |
| 2026-04-23 17:33 | -23.42809 | -46.48205 | 2468 ft | 2 kts | 266° |
| 2026-04-23 17:33 | -23.42808 | -46.48195 | 2468 ft | 1 kts | 257° |
| 2026-04-23 17:33 | -23.42800 | -46.48181 | 2468 ft | 2 kts | 209° |
| 2026-04-23 17:34 | -23.42789 | -46.48178 | 2468 ft | 0 kts | 178° |
| 2026-04-23 17:34 | -23.42782 | -46.48179 | 2468 ft | 1 kts | 173° |
| 2026-04-23 17:34 | -23.42781 | -46.48179 | 2468 ft | 0 kts | 173° |
| 2026-04-23 17:36 | -23.42783 | -46.48179 | 2468 ft | 0 kts | 173° |
| 2026-04-23 17:36 | -23.42796 | -46.48177 | 2468 ft | 3 kts | 171° |
| 2026-04-23 17:36 | -23.42828 | -46.48169 | 2468 ft | 6 kts | 164° |
| 2026-04-23 17:36 | -23.42874 | -46.48155 | 2468 ft | 7 kts | 164° |
| 2026-04-23 17:37 | -23.42930 | -46.48144 | 2468 ft | 8 kts | 174° |
| 2026-04-23 17:37 | -23.42994 | -46.48137 | 2468 ft | 9 kts | 174° |
| 2026-04-23 17:37 | -23.43142 | -46.48117 | 2468 ft | 10 kts | 165° |
| 2026-04-23 17:38 | -23.43201 | -46.48098 | 2468 ft | 6 kts | 163° |
| 2026-04-23 17:38 | -23.43218 | -46.48093 | 2468 ft | 0 kts | 163° |
| 2026-04-23 17:38 | -23.43222 | -46.48091 | 2468 ft | 1 kts | 163° |
| 2026-04-23 17:38 | -23.43235 | -46.48087 | 2468 ft | 2 kts | 163° |
| 2026-04-23 17:39 | -23.43265 | -46.48077 | 2468 ft | 5 kts | 163° |
| 2026-04-23 17:39 | -23.43307 | -46.48064 | 2468 ft | 6 kts | 163° |
| 2026-04-23 17:39 | -23.43346 | -46.48034 | 2468 ft | 7 kts | 102° |
| 2026-04-23 17:39 | -23.43320 | -46.47928 | 2468 ft | 37 kts | 73° |
| 2026-04-23 17:40 | -23.43181 | -46.47416 | 2469 ft | 102 kts | 74° |
| 2026-04-23 17:40 | -23.42925 | -46.46463 | 2470 ft | 156 kts | 72° |
| 2026-04-23 17:40 | -23.42580 | -46.45246 | 2810 ft | 171 kts | 74° |
| 2026-04-23 17:40 | -23.42193 | -46.44035 | 3275 ft | 174 kts | 60° |
| 2026-04-23 17:41 | -23.41324 | -46.43050 | 3537 ft | 188 kts | 40° |
| 2026-04-23 17:41 | -23.39044 | -46.41185 | 4029 ft | 224 kts | 38° |
| 2026-04-23 17:41 | -23.37795 | -46.40134 | 4604 ft | 228 kts | 41° |
| 2026-04-23 17:42 | -23.35377 | -46.37587 | 5393 ft | 259 kts | 46° |
| 2026-04-23 17:42 | -23.34087 | -46.36150 | 5878 ft | 270 kts | 46° |
| 2026-04-23 17:42 | -23.33213 | -46.35179 | 6345 ft | 272 kts | 46° |
| 2026-04-23 17:43 | -23.31165 | -46.33680 | 7431 ft | 273 kts | 13° |
| 2026-04-23 17:43 | -23.29906 | -46.33631 | 8113 ft | 270 kts | 352° |
| 2026-04-23 17:43 | -23.28203 | -46.34331 | 9147 ft | 262 kts | 328° |
| 2026-04-23 17:43 | -23.26552 | -46.36170 | 10229 ft | 263 kts | 308° |
| 2026-04-23 17:44 | -23.25827 | -46.37258 | 10509 ft | 274 kts | 307° |
| 2026-04-23 17:44 | -23.24684 | -46.38998 | 10895 ft | 292 kts | 307° |
| 2026-04-23 17:44 | -23.21690 | -46.43454 | 11726 ft | 332 kts | 307° |
| 2026-04-23 17:45 | -23.20294 | -46.45492 | 12326 ft | 338 kts | 308° |
| 2026-04-23 17:45 | -23.18006 | -46.48821 | 13783 ft | 330 kts | 308° |
| 2026-04-23 17:45 | -23.16627 | -46.50820 | 14417 ft | 333 kts | 308° |
| 2026-04-23 17:46 | -23.13819 | -46.54881 | 15588 ft | 340 kts | 307° |
| 2026-04-23 17:46 | -23.11928 | -46.57613 | 16328 ft | 344 kts | 307° |
| 2026-04-23 17:46 | -23.10484 | -46.59697 | 16903 ft | 347 kts | 307° |
| 2026-04-23 17:47 | -23.09031 | -46.61794 | 17446 ft | 349 kts | 307° |
| 2026-04-23 17:47 | -23.07567 | -46.63907 | 17982 ft | 351 kts | 307° |
| 2026-04-23 17:47 | -23.05099 | -46.67461 | 18642 ft | 362 kts | 307° |
| 2026-04-23 17:48 | -23.03037 | -46.70432 | 19110 ft | 372 kts | 307° |
| 2026-04-23 17:48 | -23.02007 | -46.71914 | 19450 ft | 372 kts | 306° |
| 2026-04-23 17:48 | -23.00449 | -46.74157 | 19957 ft | 373 kts | 306° |
| 2026-04-23 17:48 | -22.98886 | -46.76406 | 20561 ft | 371 kts | 306° |
| 2026-04-23 17:49 | -22.97341 | -46.78626 | 21207 ft | 368 kts | 306° |
| 2026-04-23 17:49 | -22.95811 | -46.80825 | 21829 ft | 364 kts | 305° |
| 2026-04-23 17:49 | -22.94293 | -46.83007 | 22440 ft | 361 kts | 305° |
| 2026-04-23 17:49 | -22.92788 | -46.85171 | 23050 ft | 359 kts | 304° |
| 2026-04-23 17:50 | -22.91292 | -46.87320 | 23650 ft | 356 kts | 304° |
| 2026-04-23 17:50 | -22.87831 | -46.92292 | 24846 ft | 357 kts | 304° |
| 2026-04-23 17:50 | -22.86841 | -46.93714 | 25143 ft | 358 kts | 304° |
| 2026-04-23 17:51 | -22.85340 | -46.95869 | 25592 ft | 359 kts | 304° |
| 2026-04-23 17:51 | -22.83830 | -46.98033 | 25993 ft | 361 kts | 304° |
| 2026-04-23 17:51 | -22.80259 | -47.03154 | 26113 ft | 372 kts | 304° |
| 2026-04-23 17:52 | -22.79213 | -47.04654 | 26113 ft | 380 kts | 304° |
| 2026-04-23 17:52 | -22.75983 | -47.09277 | 26107 ft | 386 kts | 304° |
| 2026-04-23 17:52 | -22.74358 | -47.11592 | 26105 ft | 386 kts | 305° |
| 2026-04-23 17:53 | -22.69862 | -47.14796 | 26108 ft | 398 kts | 336° |
| 2026-04-23 17:53 | -22.67254 | -47.15821 | 26103 ft | 398 kts | 336° |
| 2026-04-23 17:53 | -22.63821 | -47.17218 | 26100 ft | 397 kts | 335° |
| 2026-04-23 17:54 | -22.62076 | -47.17948 | 26099 ft | 397 kts | 335° |
| 2026-04-23 17:54 | -22.59537 | -47.19028 | 26099 ft | 396 kts | 334° |
| 2026-04-23 17:54 | -22.53540 | -47.21615 | 26098 ft | 396 kts | 334° |
| 2026-04-23 17:55 | -22.49287 | -47.23461 | 26097 ft | 396 kts | 334° |
| 2026-04-23 17:55 | -22.45860 | -47.24951 | 26097 ft | 396 kts | 334° |
| 2026-04-23 17:55 | -22.43297 | -47.26065 | 26096 ft | 396 kts | 334° |
| 2026-04-23 17:56 | -22.41599 | -47.26802 | 26096 ft | 396 kts | 334° |
| 2026-04-23 17:56 | -22.35600 | -47.29407 | 25489 ft | 401 kts | 335° |
| 2026-04-23 17:56 | -22.33000 | -47.30529 | 24960 ft | 402 kts | 335° |
| 2026-04-23 17:57 | -22.30384 | -47.31616 | 24342 ft | 403 kts | 336° |
| 2026-04-23 17:57 | -22.28612 | -47.32344 | 23904 ft | 403 kts | 336° |
| 2026-04-23 17:57 | -22.22498 | -47.34854 | 22311 ft | 406 kts | 337° |
| 2026-04-23 17:58 | -22.20750 | -47.35573 | 21867 ft | 406 kts | 337° |
| 2026-04-23 17:58 | -22.18122 | -47.36655 | 21334 ft | 402 kts | 338° |
| 2026-04-23 17:58 | -22.15516 | -47.37727 | 20806 ft | 398 kts | 338° |
| 2026-04-23 17:58 | -22.12935 | -47.38790 | 20274 ft | 395 kts | 338° |
| 2026-04-23 17:59 | -22.10372 | -47.39845 | 19751 ft | 392 kts | 338° |
| 2026-04-23 17:59 | -22.07830 | -47.40891 | 19231 ft | 389 kts | 339° |
| 2026-04-23 17:59 | -22.05303 | -47.41931 | 18706 ft | 387 kts | 339° |
| 2026-04-23 17:59 | -22.01940 | -47.43314 | 17995 ft | 385 kts | 339° |
| 2026-04-23 18:00 | -22.00284 | -47.43995 | 17644 ft | 384 kts | 340° |
| 2026-04-23 18:00 | -21.97783 | -47.45023 | 17120 ft | 383 kts | 340° |
| 2026-04-23 18:00 | -21.94492 | -47.46372 | 16456 ft | 381 kts | 340° |
| 2026-04-23 18:00 | -21.92819 | -47.47058 | 16111 ft | 380 kts | 340° |
| 2026-04-23 18:01 | -21.89538 | -47.48402 | 15417 ft | 378 kts | 340° |
| 2026-04-23 18:01 | -21.87910 | -47.49070 | 15074 ft | 377 kts | 340° |
| 2026-04-23 18:01 | -21.85457 | -47.50076 | 14561 ft | 376 kts | 340° |
| 2026-04-23 18:01 | -21.83019 | -47.51075 | 14042 ft | 373 kts | 340° |
| 2026-04-23 18:02 | -21.80595 | -47.52070 | 13523 ft | 371 kts | 340° |
| 2026-04-23 18:02 | -21.78187 | -47.53057 | 13002 ft | 368 kts | 340° |
| 2026-04-23 18:02 | -21.75798 | -47.54035 | 12487 ft | 365 kts | 340° |
| 2026-04-23 18:02 | -21.73428 | -47.55004 | 11981 ft | 362 kts | 340° |
| 2026-04-23 18:03 | -21.70319 | -47.56277 | 11316 ft | 358 kts | 340° |
| 2026-04-23 18:03 | -21.67983 | -47.57234 | 10814 ft | 355 kts | 340° |
| 2026-04-23 18:03 | -21.66463 | -47.57856 | 10553 ft | 350 kts | 340° |
| 2026-04-23 18:03 | -21.64206 | -47.58780 | 10182 ft | 343 kts | 340° |
| 2026-04-23 18:04 | -21.62002 | -47.59683 | 9933 ft | 332 kts | 340° |
| 2026-04-23 18:04 | -21.59855 | -47.60561 | 9569 ft | 327 kts | 340° |
| 2026-04-23 18:04 | -21.57729 | -47.61429 | 9111 ft | 325 kts | 340° |
| 2026-04-23 18:04 | -21.55617 | -47.62293 | 8667 ft | 323 kts | 340° |
| 2026-04-23 18:05 | -21.53521 | -47.63155 | 8227 ft | 321 kts | 340° |
| 2026-04-23 18:05 | -21.51440 | -47.64009 | 7789 ft | 318 kts | 340° |
| 2026-04-23 18:05 | -21.49392 | -47.64850 | 7234 ft | 313 kts | 340° |
| 2026-04-23 18:05 | -21.47383 | -47.65677 | 6566 ft | 312 kts | 340° |
| 2026-04-23 18:06 | -21.45360 | -47.66507 | 6156 ft | 306 kts | 340° |
| 2026-04-23 18:06 | -21.43398 | -47.67313 | 5962 ft | 295 kts | 340° |
| 2026-04-23 18:06 | -21.41507 | -47.68090 | 5775 ft | 285 kts | 340° |
| 2026-04-23 18:06 | -21.39683 | -47.68839 | 5583 ft | 273 kts | 340° |
| 2026-04-23 18:07 | -21.37944 | -47.69521 | 5324 ft | 259 kts | 343° |
| 2026-04-23 18:07 | -21.36249 | -47.70079 | 5151 ft | 249 kts | 345° |
| 2026-04-23 18:07 | -21.34608 | -47.70607 | 4989 ft | 241 kts | 345° |
| 2026-04-23 18:07 | -21.33023 | -47.71115 | 4825 ft | 233 kts | 345° |
| 2026-04-23 18:08 | -21.31494 | -47.71605 | 4664 ft | 224 kts | 345° |
| 2026-04-23 18:08 | -21.30022 | -47.72080 | 4505 ft | 216 kts | 345° |
| 2026-04-23 18:08 | -21.28603 | -47.72535 | 4357 ft | 207 kts | 345° |
| 2026-04-23 18:08 | -21.27278 | -47.72960 | 4306 ft | 190 kts | 345° |
| 2026-04-23 18:09 | -21.26042 | -47.73357 | 4131 ft | 180 kts | 345° |
| 2026-04-23 18:09 | -21.24871 | -47.73734 | 3951 ft | 171 kts | 345° |
| 2026-04-23 18:09 | -21.23752 | -47.74094 | 3742 ft | 163 kts | 345° |
| 2026-04-23 18:09 | -21.22711 | -47.74428 | 3561 ft | 156 kts | 345° |
| 2026-04-23 18:10 | -21.21670 | -47.74762 | 3360 ft | 155 kts | 345° |
| 2026-04-23 18:10 | -21.20635 | -47.75092 | 3162 ft | 151 kts | 345° |
| 2026-04-23 18:10 | -21.19654 | -47.75407 | 2944 ft | 144 kts | 346° |
| 2026-04-23 18:10 | -21.18697 | -47.75711 | 2761 ft | 142 kts | 345° |
| 2026-04-23 18:11 | -21.17744 | -47.76015 | 2586 ft | 142 kts | 345° |
| 2026-04-23 18:11 | -21.16488 | -47.76426 | 2344 ft | 142 kts | 345° |
| 2026-04-23 18:11 | -21.15848 | -47.76632 | 2204 ft | 141 kts | 345° |
| 2026-04-23 18:11 | -21.14903 | -47.76931 | 1990 ft | 140 kts | 345° |
| 2026-04-23 18:12 | -21.13968 | -47.77231 | 1833 ft | 137 kts | 344° |
| 2026-04-23 18:12 | -21.13248 | -47.77462 | 1820 ft | 68 kts | 343° |
| 2026-04-23 18:12 | -21.13044 | -47.77536 | 1819 ft | 6 kts | 294° |
| 2026-04-23 18:12 | -21.13077 | -47.77569 | 1819 ft | 8 kts | 206° |
| 2026-04-23 18:13 | -21.13111 | -47.77586 | 1819 ft | 8 kts | 208° |
| 2026-04-23 18:13 | -21.13166 | -47.77618 | 1819 ft | 9 kts | 208° |
| 2026-04-23 18:13 | -21.13230 | -47.77636 | 1820 ft | 10 kts | 179° |
| 2026-04-23 18:13 | -21.13301 | -47.77620 | 1820 ft | 10 kts | 162° |
| 2026-04-23 18:14 | -21.13374 | -47.77596 | 1821 ft | 11 kts | 163° |
| 2026-04-23 18:14 | -21.13476 | -47.77564 | 1822 ft | 11 kts | 163° |
| 2026-04-23 18:14 | -21.13530 | -47.77546 | 1822 ft | 11 kts | 163° |
| 2026-04-23 18:14 | -21.13637 | -47.77512 | 1823 ft | 12 kts | 163° |
| 2026-04-23 18:15 | -21.13693 | -47.77494 | 1823 ft | 12 kts | 163° |
| 2026-04-23 18:15 | -21.13778 | -47.77465 | 1824 ft | 12 kts | 163° |
| 2026-04-23 18:15 | -21.13840 | -47.77448 | 1825 ft | 5 kts | 194° |
| 2026-04-23 18:15 | -21.13862 | -47.77493 | 1825 ft | 7 kts | 251° |
| 2026-04-23 18:16 | -21.13873 | -47.77546 | 1825 ft | 7 kts | 257° |
| 2026-04-23 18:16 | -21.13884 | -47.77586 | 1824 ft | 2 kts | 253° |
| 2026-04-23 18:16 | -21.13887 | -47.77598 | 1824 ft | 0 kts | 254° |